createdAt,value
2018-05-21T00:00:52.750Z,42.40
2018-05-21T00:03:20.966Z,43.00
2018-05-21T00:05:49.167Z,42.90
2018-05-21T00:08:17.385Z,43.47
2018-05-21T00:10:45.608Z,43.20
2018-05-21T00:13:13.803Z,42.57
2018-05-21T00:15:41.976Z,42.30
2018-05-21T00:18:10.187Z,42.50
2018-05-21T00:20:38.368Z,43.07
2018-05-21T00:23:06.568Z,42.33
2018-05-21T00:25:34.785Z,42.40
2018-05-21T00:28:03.032Z,42.93
2018-05-21T00:30:31.489Z,42.53
2018-05-21T00:32:59.692Z,42.70
2018-05-21T00:35:28.636Z,43.63
2018-05-21T00:37:56.830Z,43.63
2018-05-21T00:40:25.039Z,43.17
2018-05-21T00:42:53.220Z,43.30
2018-05-21T00:45:22.184Z,44.20
2018-05-21T00:47:50.380Z,43.90
2018-05-21T00:50:18.950Z,45.37
2018-05-21T00:52:48.570Z,45.27
2018-05-21T00:55:35.355Z,44.97
2018-05-21T00:58:03.584Z,45.67
2018-05-21T01:00:31.804Z,46.63
2018-05-21T01:03:00.013Z,45.17
2018-05-21T01:05:29.882Z,46.60
2018-05-21T01:07:58.136Z,46.87
2018-05-21T01:10:26.332Z,45.80
2018-05-21T01:12:54.527Z,44.63
2018-05-21T01:15:22.716Z,44.57
2018-05-21T01:17:51.691Z,43.57
2018-05-21T01:20:20.790Z,43.37
2018-05-21T01:22:48.986Z,43.43
2018-05-21T01:25:17.612Z,43.90
2018-05-21T01:27:45.793Z,43.53
2018-05-21T01:30:13.977Z,43.13
2018-05-21T01:32:42.194Z,43.40
2018-05-21T01:35:10.386Z,43.23
2018-05-21T01:37:38.567Z,43.63
2018-05-21T01:40:06.758Z,43.63
2018-05-21T01:42:34.933Z,44.70
2018-05-21T01:45:03.107Z,44.73
2018-05-21T01:47:31.321Z,44.30
2018-05-21T01:49:59.510Z,43.93
2018-05-21T01:52:27.685Z,44.23
2018-05-21T01:54:56.536Z,43.23
2018-05-21T01:57:24.708Z,43.83
2018-05-21T01:59:52.925Z,42.83
2018-05-21T02:02:21.886Z,43.43
2018-05-21T02:04:50.067Z,43.57
2018-05-21T02:07:18.283Z,44.37
2018-05-21T02:09:46.488Z,44.90
2018-05-21T02:12:14.665Z,44.27
2018-05-21T02:14:42.893Z,44.63
2018-05-21T02:17:11.826Z,43.90
2018-05-21T02:19:40.008Z,43.63
2018-05-21T02:22:08.232Z,45.73
2018-05-21T02:24:36.411Z,45.37
2018-05-21T02:27:06.306Z,44.50
2018-05-21T02:29:35.293Z,43.83
2018-05-21T02:32:04.462Z,44.03
2018-05-21T02:34:32.637Z,43.77
2018-05-21T02:37:00.867Z,44.90
2018-05-21T02:39:29.045Z,44.93
2018-05-21T02:41:57.220Z,45.00
2018-05-21T02:44:26.222Z,43.97
2018-05-21T02:46:54.410Z,44.10
2018-05-21T02:49:23.377Z,44.30
2018-05-21T02:51:51.594Z,44.57
2018-05-21T02:54:19.785Z,44.77
2018-05-21T02:56:47.976Z,44.30
2018-05-21T02:59:16.178Z,44.60
2018-05-21T03:01:45.134Z,44.87
2018-05-21T03:04:13.309Z,43.57
2018-05-21T03:06:41.517Z,43.50
2018-05-21T03:09:09.701Z,43.70
2018-05-21T03:11:37.904Z,43.00
2018-05-21T03:14:06.134Z,43.43
2018-05-21T03:16:35.083Z,44.27
2018-05-21T03:19:03.265Z,44.40
2018-05-21T03:21:31.493Z,44.23
2018-05-21T03:23:59.701Z,44.33
2018-05-21T03:26:27.885Z,44.17
2018-05-21T03:28:56.090Z,43.53
2018-05-21T03:31:24.269Z,44.30
2018-05-21T03:33:52.472Z,44.70
2018-05-21T03:36:20.676Z,43.23
2018-05-21T03:38:48.857Z,43.50
2018-05-21T03:41:17.090Z,44.10
2018-05-21T03:43:46.065Z,43.63
2018-05-21T03:46:15.353Z,43.87
2018-05-21T03:48:43.549Z,44.30
2018-05-21T03:51:11.762Z,44.63
2018-05-21T03:53:39.960Z,44.17
2018-05-21T03:56:08.222Z,44.67
2018-05-21T03:58:54.091Z,45.47
2018-05-21T04:01:39.927Z,44.20
2018-05-21T04:04:08.142Z,44.10
2018-05-21T04:06:37.330Z,44.97
2018-05-21T04:09:05.564Z,45.10
2018-05-21T04:11:33.849Z,44.17
2018-05-21T04:14:02.125Z,45.73
2018-05-21T04:16:30.305Z,46.40
2018-05-21T04:18:58.502Z,44.87
2018-05-21T04:21:26.763Z,44.60
2018-05-21T04:23:55.000Z,43.93
2018-05-21T04:26:23.197Z,43.93
2018-05-21T04:28:52.493Z,44.60
2018-05-21T04:31:21.532Z,44.03
2018-05-21T04:33:49.749Z,44.90
2018-05-21T04:36:17.998Z,45.80
2018-05-21T04:38:46.972Z,45.07
2018-05-21T04:41:15.924Z,45.50
2018-05-21T04:43:44.105Z,45.37
2018-05-21T04:46:12.330Z,44.67
2018-05-21T04:48:40.546Z,45.30
2018-05-21T04:51:08.751Z,44.27
2018-05-21T04:53:37.793Z,46.73
2018-05-21T04:56:05.982Z,46.63
2018-05-21T04:58:34.165Z,45.73
2018-05-21T05:01:02.395Z,47.60
2018-05-21T05:03:31.284Z,46.00
2018-05-21T05:05:59.485Z,44.57
2018-05-21T05:08:27.702Z,46.53
2018-05-21T05:10:55.892Z,45.20
2018-05-21T05:13:24.853Z,45.50
2018-05-21T05:15:53.077Z,45.33
2018-05-21T05:18:21.288Z,45.00
2018-05-21T05:20:49.594Z,47.10
2018-05-21T05:23:17.828Z,46.83
2018-05-21T05:25:46.020Z,46.87
2018-05-21T05:28:14.200Z,46.00
2018-05-21T05:30:42.462Z,46.30
2018-05-21T05:33:10.651Z,45.97
2018-05-21T05:35:39.292Z,47.57
2018-05-21T05:38:07.493Z,48.30
2018-05-21T05:40:36.614Z,48.17
2018-05-21T05:43:04.875Z,47.13
2018-05-21T05:45:33.076Z,47.23
2018-05-21T05:48:01.258Z,47.33
2018-05-21T05:50:30.234Z,46.53
2018-05-21T05:52:58.629Z,46.77
2018-05-21T05:55:27.169Z,48.30
2018-05-21T05:57:55.376Z,47.53
2018-05-21T06:00:23.586Z,48.50
2018-05-21T06:02:51.761Z,48.30
2018-05-21T06:05:19.956Z,49.30
2018-05-21T06:07:48.185Z,44.47
2018-05-21T06:10:16.377Z,47.50
2018-05-21T06:12:44.567Z,48.23
2018-05-21T06:15:12.786Z,44.30
2018-05-21T06:17:40.975Z,49.40
2018-05-21T06:20:10.427Z,46.90
2018-05-21T06:22:38.644Z,47.80
2018-05-21T06:25:06.845Z,47.70
2018-05-21T06:27:35.016Z,48.33
2018-05-21T06:30:04.095Z,48.80
2018-05-21T06:32:32.301Z,45.17
2018-05-21T06:35:00.487Z,45.20
2018-05-21T06:37:30.297Z,47.07
2018-05-21T06:39:58.473Z,44.77
2018-05-21T06:42:27.527Z,44.20
2018-05-21T06:44:55.754Z,43.17
2018-05-21T06:47:23.978Z,43.67
2018-05-21T06:49:52.172Z,47.23
2018-05-21T06:52:20.398Z,47.53
2018-05-21T06:54:48.572Z,47.53
2018-05-21T06:57:16.749Z,47.83
2018-05-21T06:59:44.975Z,48.67
2018-05-21T07:02:13.163Z,49.67
2018-05-21T07:04:41.337Z,48.70
2018-05-21T07:07:10.390Z,47.20
2018-05-21T07:09:38.583Z,48.07
2018-05-21T07:12:06.780Z,48.77
2018-05-21T07:14:35.763Z,45.67
2018-05-21T07:17:04.749Z,46.47
2018-05-21T07:19:34.414Z,46.83
2018-05-21T07:22:02.612Z,47.20
2018-05-21T07:24:30.927Z,47.60
2018-05-21T07:26:59.044Z,48.00
2018-05-21T07:29:27.234Z,46.50
2018-05-21T07:31:55.615Z,44.87
2018-05-21T07:34:24.548Z,47.70
2018-05-21T07:36:52.761Z,44.67
2018-05-21T07:39:20.955Z,46.63
2018-05-21T07:41:49.224Z,50.50
2018-05-21T07:44:17.453Z,47.50
2018-05-21T07:46:45.780Z,48.27
2018-05-21T07:49:13.991Z,47.00
2018-05-21T07:51:43.088Z,45.83
2018-05-21T07:54:11.210Z,46.83
2018-05-21T07:56:39.425Z,46.53
2018-05-21T07:59:07.658Z,46.90
2018-05-21T08:01:35.906Z,46.77
2018-05-21T08:04:04.146Z,49.93
2018-05-21T08:06:32.349Z,47.23
2018-05-21T08:09:01.912Z,47.73
2018-05-21T08:11:30.133Z,47.43
2018-05-21T08:13:58.342Z,47.30
2018-05-21T08:16:26.585Z,47.43
2018-05-21T08:18:54.790Z,48.17
2018-05-21T08:21:23.012Z,47.97
2018-05-21T08:23:51.219Z,46.87
2018-05-21T08:26:19.419Z,48.00
2018-05-21T08:28:47.725Z,46.70
2018-05-21T08:31:15.972Z,47.77
2018-05-21T08:33:44.150Z,47.90
2018-05-21T08:36:12.903Z,47.87
2018-05-21T08:38:41.568Z,47.60
2018-05-21T08:41:09.799Z,47.83
2018-05-21T08:43:38.037Z,47.10
2018-05-21T08:46:06.655Z,46.30
2018-05-21T08:48:34.898Z,48.43
2018-05-21T08:51:03.875Z,47.43
2018-05-21T08:53:32.782Z,49.57
2018-05-21T08:56:01.724Z,47.93
2018-05-21T08:58:29.949Z,48.27
2018-05-21T09:00:58.155Z,48.83
2018-05-21T09:03:26.356Z,47.93
2018-05-21T09:05:55.437Z,47.53
2018-05-21T09:08:23.617Z,46.67
2018-05-21T09:10:51.849Z,46.90
2018-05-21T09:13:20.102Z,47.30
2018-05-21T09:15:49.047Z,49.00
2018-05-21T09:18:17.219Z,47.93
2018-05-21T09:20:45.416Z,47.30
2018-05-21T09:23:13.716Z,46.87
2018-05-21T09:25:42.970Z,47.77
2018-05-21T09:28:11.174Z,48.20
2018-05-21T09:30:39.389Z,49.17
2018-05-21T09:33:08.340Z,47.17
2018-05-21T09:35:36.560Z,47.93
2018-05-21T09:38:04.762Z,48.40
2018-05-21T09:40:32.939Z,46.90
2018-05-21T09:43:01.933Z,46.67
2018-05-21T09:45:30.108Z,48.63
2018-05-21T09:47:59.118Z,48.60
2018-05-21T09:50:27.343Z,47.83
2018-05-21T09:52:55.616Z,47.60
2018-05-21T09:55:23.788Z,48.17
2018-05-21T09:57:52.823Z,47.63
2018-05-21T10:00:24.815Z,50.03
2018-05-21T10:02:53.161Z,48.90
2018-05-21T10:05:21.384Z,48.57
2018-05-21T10:07:49.587Z,48.37
2018-05-21T10:10:18.113Z,46.97
2018-05-21T10:12:46.302Z,48.50
2018-05-21T10:15:15.463Z,48.97
2018-05-21T10:17:44.335Z,49.40
2018-05-21T10:20:13.275Z,51.47
2018-05-21T10:22:41.484Z,49.47
2018-05-21T10:25:10.490Z,49.23
2018-05-21T10:27:38.657Z,48.03
2018-05-21T10:30:06.873Z,47.43
2018-05-21T10:32:35.074Z,47.80
2018-05-21T10:35:03.322Z,47.90
2018-05-21T10:37:32.592Z,48.67
2018-05-21T10:40:01.719Z,47.47
2018-05-21T10:42:29.912Z,47.73
2018-05-21T10:44:58.096Z,48.10
2018-05-21T10:47:27.134Z,49.30
2018-05-21T10:49:56.054Z,48.37
2018-05-21T10:52:24.230Z,52.13
2018-05-21T10:54:52.453Z,51.30
2018-05-21T10:57:20.679Z,49.83
2018-05-21T10:59:49.088Z,49.40
2018-05-21T11:02:17.359Z,50.73
2018-05-21T11:04:45.607Z,49.37
2018-05-21T11:07:13.790Z,49.77
2018-05-21T11:09:42.127Z,52.97
2018-05-21T11:12:10.411Z,49.07
2018-05-21T11:14:38.546Z,49.17
2018-05-21T11:17:06.758Z,47.43
2018-05-21T11:19:35.808Z,49.70
2018-05-21T11:22:04.172Z,49.67
2018-05-21T11:24:32.367Z,50.83
2018-05-21T11:27:00.576Z,50.27
2018-05-21T11:29:28.787Z,52.00
2018-05-21T11:31:57.071Z,53.77
2018-05-21T11:34:25.964Z,52.20
2018-05-21T11:36:54.141Z,51.03
2018-05-21T11:39:22.344Z,48.53
2018-05-21T11:41:50.555Z,52.50
2018-05-21T11:44:18.745Z,49.37
2018-05-21T11:46:47.033Z,48.67
2018-05-21T11:49:16.500Z,49.23
2018-05-21T11:51:44.673Z,52.03
2018-05-21T11:54:15.549Z,54.67
2018-05-21T11:56:43.734Z,51.00
2018-05-21T11:59:11.943Z,51.37
2018-05-21T12:01:40.942Z,50.27
2018-05-21T12:04:11.024Z,50.47
2018-05-21T12:06:39.208Z,51.57
2018-05-21T12:09:07.425Z,50.10
2018-05-21T12:11:35.612Z,49.80
2018-05-21T12:14:03.825Z,49.90
2018-05-21T12:16:32.055Z,49.83
2018-05-21T12:19:00.229Z,51.07
2018-05-21T12:21:28.462Z,49.57
2018-05-21T12:23:56.931Z,51.77
2018-05-21T12:26:25.192Z,49.97
2018-05-21T12:28:53.408Z,49.73
2018-05-21T12:31:22.424Z,50.97
2018-05-21T12:33:50.703Z,51.00
2018-05-21T12:36:19.812Z,49.37
2018-05-21T12:38:48.039Z,51.07
2018-05-21T12:41:16.417Z,50.50
2018-05-21T12:43:44.602Z,53.93
2018-05-21T12:46:13.581Z,52.20
2018-05-21T12:48:41.800Z,50.73
2018-05-21T12:51:10.017Z,50.10
2018-05-21T12:53:38.205Z,50.83
2018-05-21T12:56:07.269Z,50.27
2018-05-21T12:58:35.449Z,52.00
2018-05-21T13:01:03.982Z,51.27
2018-05-21T13:03:32.918Z,51.17
2018-05-21T13:06:01.093Z,50.10
2018-05-21T13:08:29.301Z,49.90
2018-05-21T13:10:57.490Z,49.37
2018-05-21T13:13:25.692Z,52.03
2018-05-21T13:15:54.855Z,51.83
2018-05-21T13:18:23.060Z,52.47
2018-05-21T13:20:51.236Z,49.80
2018-05-21T13:23:19.440Z,49.77
2018-05-21T13:25:47.628Z,49.27
2018-05-21T13:28:15.804Z,49.07
2018-05-21T13:30:44.035Z,49.03
2018-05-21T13:33:12.236Z,49.23
2018-05-21T13:35:40.412Z,51.63
2018-05-21T13:38:08.600Z,50.53
2018-05-21T13:40:36.781Z,48.60
2018-05-21T13:43:05.042Z,49.93
2018-05-21T13:45:33.257Z,49.83
2018-05-21T13:48:01.463Z,49.40
2018-05-21T13:50:29.658Z,49.40
2018-05-21T13:52:57.865Z,50.00
2018-05-21T13:55:26.282Z,50.00
2018-05-21T13:57:54.509Z,48.97
2018-05-21T14:00:23.255Z,50.67
2018-05-21T14:02:52.639Z,50.30
2018-05-21T14:05:21.521Z,49.60
2018-05-21T14:07:50.873Z,48.37
2018-05-21T14:10:19.817Z,49.27
2018-05-21T14:12:48.044Z,50.73
2018-05-21T14:15:17.100Z,51.83
2018-05-21T14:17:46.044Z,50.23
2018-05-21T14:20:14.221Z,50.23
2018-05-21T14:22:42.420Z,49.80
2018-05-21T14:25:10.646Z,49.70
2018-05-21T14:27:38.830Z,51.00
2018-05-21T14:30:07.997Z,49.85
2018-05-21T14:32:36.174Z,51.40
2018-05-21T14:35:04.388Z,50.50
2018-05-21T14:37:32.627Z,52.50
2018-05-21T14:40:00.801Z,51.67
2018-05-21T14:42:28.981Z,51.00
2018-05-21T14:44:57.185Z,51.57
2018-05-21T14:47:25.416Z,50.97
2018-05-21T14:49:55.071Z,50.45
2018-05-21T14:52:23.307Z,49.75
2018-05-21T14:54:51.598Z,50.78
2018-05-21T14:57:19.760Z,51.65
2018-05-21T14:59:47.981Z,51.00
2018-05-21T15:02:16.168Z,51.70
2018-05-21T15:04:44.357Z,51.07
2018-05-21T15:07:13.328Z,50.73
2018-05-21T15:09:41.649Z,50.07
2018-05-21T15:12:09.869Z,49.43
2018-05-21T15:14:38.072Z,51.07
2018-05-21T15:17:06.310Z,49.63
2018-05-21T15:19:34.500Z,49.83
2018-05-21T15:22:02.726Z,49.35
2018-05-21T15:24:30.938Z,50.33
2018-05-21T15:26:59.794Z,49.63
2018-05-21T15:29:28.025Z,49.92
2018-05-21T15:31:56.278Z,50.12
2018-05-21T15:34:24.476Z,50.33
2018-05-21T15:36:52.700Z,50.20
2018-05-21T15:39:20.876Z,50.17
2018-05-21T15:41:49.045Z,50.53
2018-05-21T15:44:18.349Z,49.43
2018-05-21T15:46:46.519Z,48.97
2018-05-21T15:49:14.748Z,49.03
2018-05-21T15:51:43.035Z,48.83
2018-05-21T15:54:12.071Z,48.30
2018-05-21T15:56:40.273Z,48.10
2018-05-21T15:59:09.134Z,48.57
2018-05-21T16:01:37.311Z,47.63
2018-05-21T16:04:05.896Z,47.70
2018-05-21T16:06:34.099Z,47.70
2018-05-21T16:09:02.276Z,47.97
2018-05-21T16:11:31.022Z,47.60
2018-05-21T16:13:59.209Z,47.20
2018-05-21T16:16:28.043Z,47.07
2018-05-21T16:18:56.325Z,46.90
2018-05-21T16:21:24.509Z,47.03
2018-05-21T16:23:53.376Z,47.30
2018-05-21T16:26:22.429Z,46.93
2018-05-21T16:28:50.818Z,47.10
2018-05-21T16:31:20.668Z,47.23
2018-05-21T16:33:49.648Z,46.83
2018-05-21T16:36:17.848Z,46.47
2018-05-21T16:38:47.835Z,47.40
2018-05-21T16:41:16.046Z,47.30
2018-05-21T16:43:45.793Z,47.13
2018-05-21T16:46:13.997Z,47.30
2018-05-21T16:48:42.785Z,47.13
2018-05-21T16:51:10.986Z,47.20
2018-05-21T16:53:39.201Z,46.80
2018-05-21T16:56:07.411Z,47.20
2018-05-21T16:58:35.763Z,48.10
2018-05-21T17:01:04.953Z,47.93
2018-05-21T17:03:33.207Z,48.63
2018-05-21T17:06:01.400Z,47.90
2018-05-21T17:08:30.743Z,48.13
2018-05-21T17:10:59.018Z,47.80
2018-05-21T17:13:27.221Z,47.93
2018-05-21T17:15:55.462Z,47.57
2018-05-21T17:18:23.721Z,48.73
2018-05-21T17:20:52.019Z,48.43
2018-05-21T17:23:20.203Z,47.87
2018-05-21T17:25:49.191Z,47.80
2018-05-21T17:28:17.369Z,47.80
2018-05-21T17:30:45.669Z,47.90
2018-05-21T17:33:14.754Z,47.83
2018-05-21T17:35:43.133Z,47.43
2018-05-21T17:38:11.282Z,48.10
2018-05-21T17:40:39.491Z,47.97
2018-05-21T17:43:07.689Z,48.37
2018-05-21T17:45:37.609Z,47.67
2018-05-21T17:48:08.262Z,47.40
2018-05-21T17:50:36.455Z,48.30
2018-05-21T17:53:04.804Z,47.93
2018-05-21T17:55:33.453Z,48.67
2018-05-21T17:58:01.702Z,47.60
2018-05-21T18:00:30.427Z,48.37
2018-05-21T18:02:58.659Z,48.00
2018-05-21T18:05:26.910Z,48.00
2018-05-21T18:07:55.113Z,47.70
2018-05-21T18:10:23.306Z,48.07
2018-05-21T18:12:51.488Z,47.43
2018-05-21T18:15:20.714Z,48.60
2018-05-21T18:17:51.807Z,47.50
2018-05-21T18:20:20.010Z,47.03
2018-05-21T18:22:48.223Z,47.13
2018-05-21T18:25:16.589Z,47.83
2018-05-21T18:27:44.817Z,46.70
2018-05-21T18:30:14.201Z,46.97
2018-05-21T18:32:42.392Z,46.93
2018-05-21T18:35:10.581Z,48.70
2018-05-21T18:37:38.788Z,48.03
2018-05-21T18:40:08.723Z,47.67
2018-05-21T18:42:36.971Z,46.73
2018-05-21T18:45:05.213Z,48.50
2018-05-21T18:47:34.320Z,46.37
2018-05-21T18:50:02.573Z,45.97
2018-05-21T18:52:32.635Z,45.73
2018-05-21T18:55:04.756Z,48.80
2018-05-21T18:57:33.826Z,48.53
2018-05-21T19:00:03.811Z,47.30
2018-05-21T19:02:32.869Z,49.73
2018-05-21T19:05:01.376Z,57.83
2018-05-21T19:07:31.590Z,57.33
2018-05-21T19:09:59.893Z,55.37
2018-05-21T19:12:29.716Z,50.07
2018-05-21T19:14:58.236Z,48.57
2018-05-21T19:17:26.521Z,48.40
2018-05-21T19:19:55.738Z,48.40
2018-05-21T19:22:25.380Z,47.30
2018-05-21T19:24:54.547Z,46.80
2018-05-21T19:27:24.599Z,46.97
2018-05-21T19:29:53.765Z,46.10
2018-05-21T19:32:23.353Z,47.20
2018-05-21T19:34:51.923Z,46.77
2018-05-21T19:37:21.199Z,46.43
2018-05-21T19:39:49.989Z,46.67
2018-05-21T19:42:18.577Z,47.63
2018-05-21T19:44:47.507Z,47.03
2018-05-21T19:47:20.519Z,46.30
2018-05-21T19:49:54.400Z,46.10
2018-05-21T19:52:29.381Z,46.77
2018-05-21T19:54:57.624Z,46.87
2018-05-21T19:57:31.782Z,46.57
2018-05-21T20:00:00.233Z,45.43
2018-05-21T20:02:28.410Z,46.93
2018-05-21T20:04:56.613Z,45.87
2018-05-21T20:07:25.627Z,45.93
2018-05-21T20:09:53.837Z,45.67
2018-05-21T20:12:23.027Z,45.20
2018-05-21T20:14:51.292Z,46.03
2018-05-21T20:17:19.515Z,46.40
2018-05-21T20:19:48.900Z,45.53
2018-05-21T20:22:17.415Z,46.13
2018-05-21T20:24:45.657Z,45.37
2018-05-21T20:27:13.909Z,45.53
2018-05-21T20:29:42.188Z,45.50
2018-05-21T20:32:10.455Z,47.47
2018-05-21T20:34:38.704Z,45.57
2018-05-21T20:37:06.982Z,47.83
2018-05-21T20:39:37.302Z,46.07
2018-05-21T20:42:05.622Z,45.33
2018-05-21T20:44:33.903Z,46.33
2018-05-21T20:47:05.240Z,45.47
2018-05-21T21:32:10.946Z,43.90
2018-05-21T21:34:39.522Z,43.37
2018-05-21T21:37:08.617Z,43.77
2018-05-21T21:39:36.843Z,44.17
2018-05-21T21:42:05.557Z,44.33
2018-05-21T21:44:35.057Z,45.03
2018-05-21T21:47:04.103Z,43.87
2018-05-21T21:49:32.315Z,44.23
2018-05-21T21:52:01.325Z,44.73
2018-05-21T21:54:29.561Z,44.10
2018-05-21T21:56:58.044Z,43.80
2018-05-21T21:59:26.224Z,45.17
2018-05-21T22:01:54.467Z,43.80
2018-05-21T22:04:22.938Z,45.03
2018-05-21T22:06:51.143Z,45.10
2018-05-21T22:09:19.341Z,45.57
2018-05-21T22:11:47.918Z,45.40
2018-05-21T22:14:16.105Z,45.70
2018-05-21T22:16:48.063Z,45.20
2018-05-21T22:19:16.276Z,46.13
2018-05-21T22:21:44.496Z,44.10
2018-05-21T22:24:12.821Z,44.77
2018-05-21T22:26:41.708Z,45.47
2018-05-21T22:29:09.945Z,44.67
2018-05-21T22:31:38.149Z,45.23
2018-05-21T22:34:07.249Z,45.87
2018-05-21T22:36:36.264Z,45.00
2018-05-21T22:39:04.552Z,44.77
2018-05-21T22:41:33.064Z,44.60
2018-05-21T22:44:01.255Z,45.83
2018-05-21T22:46:29.470Z,45.13
2018-05-21T22:48:58.876Z,44.70
2018-05-21T22:51:27.056Z,44.90
2018-05-21T22:53:55.281Z,45.20
2018-05-21T22:56:23.480Z,44.40
2018-05-21T22:58:51.673Z,45.90
2018-05-21T23:01:19.893Z,48.93
2018-05-21T23:03:48.113Z,44.70
2018-05-21T23:06:17.218Z,44.40
2018-05-21T23:08:45.439Z,45.20
2018-05-21T23:11:13.626Z,44.10
2018-05-21T23:13:41.856Z,44.73
2018-05-21T23:16:10.063Z,44.83
2018-05-21T23:18:38.252Z,45.80
2018-05-21T23:21:06.472Z,45.60
2018-05-21T23:23:34.717Z,45.73
2018-05-21T23:26:02.903Z,46.50
2018-05-21T23:28:31.843Z,45.67
2018-05-21T23:31:00.042Z,47.03
2018-05-21T23:33:28.216Z,46.33
2018-05-21T23:35:56.421Z,45.80
2018-05-21T23:38:25.439Z,46.47
2018-05-21T23:40:53.651Z,45.90
2018-05-21T23:43:21.848Z,46.67
2018-05-21T23:45:50.085Z,47.57
2018-05-21T23:48:18.414Z,47.93
2018-05-21T23:50:46.616Z,46.23
2018-05-21T23:53:14.826Z,47.07
2018-05-21T23:55:43.003Z,47.33
2018-05-21T23:58:11.198Z,46.53
